METAR Formatted Surface Weather Observation
Issued by NWS

Home | Current Version | Previous Version | Text Only | Print | Product List | Glossary On
Versions: 1 2 3
640
SAUS42 KTAE 250818 COR
MTR1J0
METAR K1J0 250758Z AUTO 00000KT 10SM CLR 24/24 A3004 RMK AO2 SLP132
T02390239 $



USA.gov is the U.S. government's official web portal to all federal, state and local government web resources and services.